Time;durP1;ratioP1;P1;durP2;ratioP2;P2;SDS_P1;SDS_P2;PMS_P1;PMS_P2;Temp;Humidity;BMP_temperature;BMP_pressure;BME280_temperature;BME280_humidity;BME280_pressure;Samples;Min_cycle;Max_cycle;Signal;HPM_P1;HPM_P2
2021/07/21 00:01:31;;;;;;;9.15;5.47;;;17.50;99.90;;;;;;12512005;28;20051;-85
2021/07/21 00:07:33;;;;;;;9.73;5.80;;;17.50;99.90;;;;;;12517268;28;20053;-85
2021/07/21 00:13:36;;;;;;;9.65;5.43;;;17.50;99.90;;;;;;12513297;28;20045;-85
2021/07/21 00:26:00;;;;;;;10.25;5.50;;;17.40;99.90;;;;;;12519543;28;20164;-85
2021/07/21 00:32:02;;;;;;;9.25;6.20;;;17.30;99.90;;;;;;12527926;28;20074;-85
2021/07/21 00:38:04;;;;;;;9.15;5.93;;;17.30;99.90;;;;;;12517285;28;20060;-85
2021/07/21 00:44:07;;;;;;;10.15;6.18;;;17.30;99.90;;;;;;12533450;28;20041;-85
2021/07/21 00:50:10;;;;;;;8.80;6.15;;;17.10;99.90;;;;;;12518675;28;20090;-86
2021/07/21 00:56:13;;;;;;;10.68;5.88;;;17.30;99.90;;;;;;12522272;28;20116;-85
2021/07/21 01:02:16;;;;;;;8.45;5.75;;;17.10;99.90;;;;;;12519757;28;20778;-85
2021/07/21 01:08:20;;;;;;;8.80;5.68;;;17.00;99.90;;;;;;12515067;28;20052;-85
2021/07/21 01:14:25;;;;;;;11.00;6.20;;;17.10;99.90;;;;;;12524024;28;20088;-85
2021/07/21 01:21:02;;;;;;;10.70;5.95;;;17.20;99.90;;;;;;12526046;28;20767;-85
2021/07/21 01:27:35;;;;;;;11.07;5.50;;;17.20;99.90;;;;;;12528258;28;20148;-85
2021/07/21 01:33:39;;;;;;;10.07;5.53;;;17.20;99.90;;;;;;12529404;28;20130;-85
2021/07/21 01:39:44;;;;;;;7.40;5.45;;;17.10;99.90;;;;;;12550243;28;20049;-85
2021/07/21 01:45:47;;;;;;;9.90;6.38;;;17.10;99.90;;;;;;12573642;28;20041;-85
2021/07/21 01:51:50;;;;;;;7.22;5.55;;;17.10;99.90;;;;;;12523421;28;20063;-85
2021/07/21 01:57:52;;;;;;;9.60;6.13;;;17.10;99.90;;;;;;12534983;28;20555;-85
2021/07/21 02:03:57;;;;;;;7.53;5.53;;;17.10;99.90;;;;;;12513276;28;20053;-85
2021/07/21 02:10:00;;;;;;;10.65;6.65;;;17.10;99.90;;;;;;12506141;28;20105;-85
2021/07/21 02:16:04;;;;;;;10.60;6.27;;;17.20;99.90;;;;;;12526881;28;20052;-85
2021/07/21 02:22:07;;;;;;;11.48;6.28;;;17.10;99.90;;;;;;12518431;28;20048;-85
2021/07/21 02:28:09;;;;;;;9.88;6.63;;;17.20;99.90;;;;;;12520630;28;20049;-85
2021/07/21 02:34:10;;;;;;;10.43;6.57;;;17.10;99.90;;;;;;12523089;28;20148;-85
2021/07/21 02:40:13;;;;;;;10.70;6.32;;;17.00;99.90;;;;;;12518868;28;20070;-84
2021/07/21 02:46:15;;;;;;;11.88;6.78;;;17.10;99.90;;;;;;12513864;28;20404;-85
2021/07/21 02:52:33;;;;;;;9.85;6.72;;;17.00;99.90;;;;;;12519396;28;20045;-85
2021/07/21 02:58:48;;;;;;;9.13;6.15;;;17.00;99.90;;;;;;12531533;28;20079;-86
2021/07/21 03:04:51;;;;;;;11.40;7.18;;;17.00;99.90;;;;;;12523161;28;20128;-85
2021/07/21 03:10:59;;;;;;;13.20;5.83;;;16.90;99.90;;;;;;12517399;28;20377;-85
2021/07/21 03:17:02;;;;;;;9.05;6.32;;;16.90;99.90;;;;;;12524160;28;20125;-85
2021/07/21 03:23:07;;;;;;;11.73;6.25;;;16.80;99.90;;;;;;12529915;28;20060;-85
2021/07/21 03:29:09;;;;;;;9.82;6.20;;;16.80;99.90;;;;;;12522167;28;20049;-86
2021/07/21 03:35:12;;;;;;;11.10;6.72;;;16.80;99.90;;;;;;12523265;28;20049;-85
2021/07/21 03:41:14;;;;;;;9.82;7.15;;;16.80;99.90;;;;;;12517702;28;20067;-85
2021/07/21 03:47:17;;;;;;;13.27;6.95;;;16.70;99.90;;;;;;12521692;28;20053;-84
2021/07/21 03:53:19;;;;;;;11.40;6.72;;;16.80;99.90;;;;;;12513023;28;20076;-85
2021/07/21 03:59:23;;;;;;;12.45;6.85;;;16.80;99.90;;;;;;12519514;28;20074;-85
2021/07/21 04:05:27;;;;;;;11.98;6.72;;;16.80;99.90;;;;;;12508952;28;20094;-85
2021/07/21 04:11:29;;;;;;;12.98;7.10;;;16.70;99.90;;;;;;12533371;28;20041;-85
2021/07/21 04:17:32;;;;;;;11.68;7.70;;;16.80;99.90;;;;;;12524607;28;20080;-85
2021/07/21 04:23:39;;;;;;;14.23;7.38;;;16.90;99.90;;;;;;12523639;28;20048;-85
2021/07/21 04:29:43;;;;;;;9.48;6.60;;;16.90;99.90;;;;;;12535025;28;20136;-85
2021/07/21 04:35:46;;;;;;;;;;;16.90;99.90;;;;;;12501856;28;20060;-85
2021/07/21 04:41:51;;;;;;;12.10;7.47;;;17.00;99.90;;;;;;12515417;28;19959;-85
2021/07/21 04:47:54;;;;;;;12.95;8.43;;;17.10;99.90;;;;;;12513613;28;20041;-85
2021/07/21 04:54:00;;;;;;;11.30;7.32;;;17.20;99.90;;;;;;12509250;28;20502;-85
2021/07/21 05:00:03;;;;;;;12.88;7.78;;;17.10;99.90;;;;;;12517682;28;20061;-85
2021/07/21 05:06:05;;;;;;;14.43;7.50;;;17.10;99.90;;;;;;12516643;28;20098;-85
2021/07/21 05:12:07;;;;;;;15.93;8.05;;;17.00;99.90;;;;;;12513032;28;20057;-85
2021/07/21 05:18:09;;;;;;;11.23;7.47;;;17.20;99.90;;;;;;12516206;28;20140;-85
2021/07/21 05:24:11;;;;;;;10.40;7.38;;;17.10;99.90;;;;;;12515128;28;20110;-85
2021/07/21 05:30:15;;;;;;;14.38;7.65;;;17.00;99.90;;;;;;12512063;28;20044;-85
2021/07/21 05:36:20;;;;;;;12.75;7.28;;;17.10;99.90;;;;;;12515634;28;20094;-85
2021/07/21 05:42:22;;;;;;;10.38;7.05;;;17.00;99.90;;;;;;12517122;28;20124;-85
2021/07/21 05:48:24;;;;;;;11.90;7.47;;;17.30;99.90;;;;;;12519095;28;20132;-86
2021/07/21 05:54:26;;;;;;;10.30;6.60;;;17.30;99.90;;;;;;12533960;28;20135;-85
2021/07/21 06:00:28;;;;;;;11.65;6.97;;;17.30;99.90;;;;;;12557485;28;20049;-86
2021/07/21 06:06:30;;;;;;;11.45;7.32;;;17.40;99.90;;;;;;12523702;28;20033;-85
2021/07/21 06:12:32;;;;;;;10.30;7.60;;;17.50;99.90;;;;;;12525359;28;20481;-85
2021/07/21 06:18:35;;;;;;;13.77;7.35;;;17.40;99.90;;;;;;12519550;28;20052;-85
2021/07/21 06:24:37;;;;;;;10.75;6.72;;;17.30;99.90;;;;;;12521916;28;20116;-85
2021/07/21 06:30:39;;;;;;;12.77;7.97;;;17.30;99.90;;;;;;12520220;28;20102;-85
2021/07/21 06:36:41;;;;;;;13.43;7.15;;;17.30;99.90;;;;;;12535608;28;20464;-85
2021/07/21 06:42:43;;;;;;;11.70;7.53;;;17.30;99.90;;;;;;12508556;28;20049;-85
2021/07/21 06:48:45;;;;;;;10.95;7.07;;;17.40;99.90;;;;;;12512267;28;20049;-85
2021/07/21 06:54:46;;;;;;;9.82;6.60;;;17.60;99.90;;;;;;12517559;28;20048;-85
2021/07/21 07:00:48;;;;;;;10.80;7.03;;;17.70;99.90;;;;;;12516742;28;20101;-85
2021/07/21 07:06:50;;;;;;;16.83;8.05;;;17.80;99.90;;;;;;12517751;28;20049;-86
2021/07/21 07:12:52;;;;;;;12.88;8.40;;;17.80;99.90;;;;;;12533217;28;20052;-86
2021/07/21 07:18:54;;;;;;;13.95;8.50;;;17.90;99.90;;;;;;12517412;28;20045;-85
2021/07/21 07:24:56;;;;;;;12.57;8.13;;;18.00;99.90;;;;;;12515234;28;20697;-86
2021/07/21 07:30:58;;;;;;;14.27;8.50;;;18.10;99.90;;;;;;12506780;28;20053;-86
2021/07/21 07:37:00;;;;;;;13.77;8.65;;;18.10;99.90;;;;;;12516744;28;20053;-86
2021/07/21 07:43:02;;;;;;;17.33;8.73;;;18.00;99.90;;;;;;12513253;28;20060;-86
2021/07/21 07:49:05;;;;;;;13.02;7.78;;;18.20;99.90;;;;;;12506556;28;20167;-85
2021/07/21 07:55:08;;;;;;;11.52;8.40;;;18.40;99.90;;;;;;12511854;28;20064;-86
2021/07/21 08:01:10;;;;;;;9.93;7.22;;;18.40;99.90;;;;;;12513514;28;20057;-85
2021/07/21 08:07:12;;;;;;;12.38;7.20;;;18.50;99.90;;;;;;12513775;28;20572;-86
2021/07/21 08:13:14;;;;;;;11.00;7.40;;;18.30;99.90;;;;;;12508213;28;20050;-86
2021/07/21 08:19:17;;;;;;;10.52;6.38;;;18.60;99.90;;;;;;12510931;28;20114;-85
2021/07/21 08:25:20;;;;;;;10.93;6.80;;;18.90;99.90;;;;;;12512807;28;20102;-86
2021/07/21 08:31:22;;;;;;;8.73;5.83;;;18.90;99.90;;;;;;12513680;28;20156;-85
2021/07/21 08:37:23;;;;;;;9.70;6.00;;;18.90;99.90;;;;;;12513024;28;20409;-86
2021/07/21 08:43:26;;;;;;;10.93;5.75;;;19.10;99.90;;;;;;12506921;28;20132;-85
2021/07/21 08:49:31;;;;;;;10.98;6.40;;;19.20;99.90;;;;;;12527699;28;20076;-86
2021/07/21 08:55:33;;;;;;;9.48;6.40;;;19.40;99.90;;;;;;12513636;28;20135;-86
2021/07/21 09:01:36;;;;;;;9.15;5.95;;;19.50;99.90;;;;;;12515251;28;20431;-86
2021/07/21 09:07:40;;;;;;;10.93;7.57;;;19.40;99.90;;;;;;12513041;28;20064;-86
2021/07/21 09:13:42;;;;;;;10.87;6.30;;;19.50;99.90;;;;;;12515555;28;20060;-86
2021/07/21 09:19:46;;;;;;;9.38;6.88;;;19.40;99.90;;;;;;12509133;28;20049;-85
2021/07/21 09:25:49;;;;;;;14.27;6.97;;;19.50;99.90;;;;;;12511795;28;20052;-85
2021/07/21 09:31:54;;;;;;;12.50;7.20;;;19.60;99.90;;;;;;12513098;28;20033;-85
2021/07/21 09:37:58;;;;;;;12.60;8.55;;;19.50;99.90;;;;;;12512912;28;20455;-86
2021/07/21 09:44:03;;;;;;;11.80;8.00;;;19.40;99.90;;;;;;12523715;28;20462;-86
2021/07/21 09:50:25;;;;;;;13.45;8.60;;;19.40;99.90;;;;;;12515249;28;20044;-85
2021/07/21 09:56:29;;;;;;;11.65;7.50;;;19.50;99.90;;;;;;12545840;28;20091;-85
2021/07/21 10:02:31;;;;;;;;;;;19.60;99.90;;;;;;12531513;28;20239;-85
2021/07/21 10:08:40;;;;;;;10.38;7.25;;;19.70;99.90;;;;;;12523036;28;19925;-85
2021/07/21 10:14:58;;;;;;;10.52;7.50;;;19.50;99.90;;;;;;12519869;28;20041;-85
2021/07/21 10:20:59;;;;;;;12.52;7.95;;;19.60;99.90;;;;;;12519163;28;20442;-85
2021/07/21 10:27:05;;;;;;;11.13;7.50;;;19.80;99.90;;;;;;12524293;28;20076;-85
2021/07/21 10:33:07;;;;;;;10.52;7.53;;;19.90;99.90;;;;;;12522363;28;20052;-85
2021/07/21 10:39:24;;;;;;;10.25;7.75;;;19.90;99.90;;;;;;12519851;28;20086;-86
2021/07/21 10:45:31;;;;;;;12.25;8.20;;;20.00;99.90;;;;;;12513563;28;20044;-85
2021/07/21 11:04:46;;;;;;;11.63;8.05;;;19.90;99.90;;;;;;12511924;28;20861;-86
2021/07/21 11:10:50;;;;;;;13.32;9.27;;;19.90;99.90;;;;;;12516882;28;20045;-86
2021/07/21 11:16:54;;;;;;;11.40;6.95;;;19.90;99.90;;;;;;12514894;28;20056;-86
2021/07/21 11:23:34;;;;;;;10.32;6.97;;;19.90;99.90;;;;;;12515454;28;20095;-86
2021/07/21 11:29:37;;;;;;;10.80;7.22;;;19.90;99.90;;;;;;12507093;28;20463;-86
2021/07/21 11:35:41;;;;;;;10.80;6.90;;;20.10;99.90;;;;;;12515516;28;20053;-86
2021/07/21 11:41:49;;;;;;;10.48;6.95;;;20.00;99.90;;;;;;12520881;28;20105;-87
2021/07/21 11:47:59;;;;;;;11.02;7.50;;;20.10;99.90;;;;;;12505585;28;20037;-86
2021/07/21 11:54:01;;;;;;;10.43;7.28;;;20.00;99.90;;;;;;12505964;28;20045;-87
2021/07/21 12:00:06;;;;;;;10.45;7.45;;;20.20;99.90;;;;;;12505346;28;20676;-86
2021/07/21 12:06:08;;;;;;;10.25;7.65;;;20.30;99.90;;;;;;12505697;28;20049;-86
2021/07/21 12:12:12;;;;;;;9.93;7.22;;;20.10;99.90;;;;;;12508649;28;20505;-86
2021/07/21 12:18:15;;;;;;;11.32;7.70;;;20.20;99.90;;;;;;12512975;28;20049;-87
2021/07/21 12:24:30;;;;;;;;;;;20.30;99.90;;;;;;12504608;28;20057;-86
2021/07/21 12:30:36;;;;;;;11.02;7.35;;;20.40;99.90;;;;;;12510452;28;19956;-87
2021/07/21 12:36:45;;;;;;;14.35;8.27;;;20.40;99.90;;;;;;12507332;28;20057;-87
2021/07/21 12:42:50;;;;;;;11.95;8.43;;;20.50;99.90;;;;;;12510761;28;20041;-87
2021/07/21 12:48:55;;;;;;;13.35;8.75;;;20.70;99.90;;;;;;12509646;28;20041;-87
2021/07/21 12:54:58;;;;;;;12.32;8.20;;;20.80;99.90;;;;;;12507262;28;20045;-87
2021/07/21 13:01:00;;;;;;;13.38;8.63;;;21.00;99.90;;;;;;12512849;28;20390;-87
2021/07/21 13:07:04;;;;;;;13.10;8.25;;;21.10;99.90;;;;;;12511353;28;20482;-86
2021/07/21 13:13:18;;;;;;;12.45;8.15;;;21.30;99.90;;;;;;12511756;28;20107;-88
2021/07/21 13:19:28;;;;;;;;;;;21.20;99.90;;;;;;12525903;28;20098;-87
2021/07/21 13:25:30;;;;;;;11.77;8.63;;;21.30;99.90;;;;;;12539623;28;19929;-86
2021/07/21 13:31:38;;;;;;;12.90;8.82;;;21.40;99.90;;;;;;12520748;28;20093;-86
2021/07/21 13:37:40;;;;;;;14.82;8.80;;;21.40;99.90;;;;;;12543117;28;20044;-86
2021/07/21 13:43:52;;;;;;;13.32;8.68;;;21.40;99.90;;;;;;12526640;28;20374;-85
2021/07/21 13:50:04;;;;;;;15.02;9.32;;;21.80;99.90;;;;;;12504488;28;20067;-86
2021/07/21 13:56:07;;;;;;;14.40;8.82;;;22.00;99.90;;;;;;12519490;28;20143;-87
2021/07/21 14:02:11;;;;;;;11.77;8.90;;;22.20;99.90;;;;;;12519939;28;20052;-86
2021/07/21 14:08:14;;;;;;;13.43;8.60;;;22.10;99.90;;;;;;12519560;28;20079;-86
2021/07/21 14:14:17;;;;;;;13.20;8.65;;;22.10;99.90;;;;;;12519666;28;20053;-87
2021/07/21 14:20:19;;;;;;;14.55;8.60;;;22.20;99.90;;;;;;12517329;28;20071;-87
2021/07/21 14:26:21;;;;;;;13.65;8.35;;;22.90;99.90;;;;;;12518470;28;20051;-87
2021/07/21 14:32:23;;;;;;;11.57;7.97;;;23.20;99.90;;;;;;12517599;28;20086;-87
2021/07/21 14:38:25;;;;;;;11.65;8.23;;;23.20;99.90;;;;;;12511209;28;20065;-86
2021/07/21 14:44:29;;;;;;;12.27;8.05;;;23.20;99.90;;;;;;12515946;28;20045;-87
2021/07/21 14:50:33;;;;;;;12.80;7.70;;;22.90;99.90;;;;;;12521988;28;20041;-87
2021/07/21 14:56:35;;;;;;;10.63;7.63;;;22.80;99.90;;;;;;12529460;28;20056;-88
2021/07/21 15:02:38;;;;;;;12.18;8.07;;;23.00;99.90;;;;;;12514811;28;20547;-88
2021/07/21 15:08:40;;;;;;;13.45;7.53;;;22.80;99.90;;;;;;12523300;28;20147;-88
2021/07/21 15:14:42;;;;;;;9.60;7.25;;;23.60;99.90;;;;;;12517067;28;20041;-88
2021/07/21 15:20:44;;;;;;;9.70;7.03;;;24.10;99.90;;;;;;12521325;28;20562;-87
2021/07/21 15:26:46;;;;;;;12.15;7.63;;;24.30;99.90;;;;;;12522841;28;20040;-87
2021/07/21 15:32:48;;;;;;;11.60;7.73;;;24.20;99.90;;;;;;12519670;28;20101;-87
2021/07/21 15:38:50;;;;;;;11.80;7.03;;;24.20;99.90;;;;;;12512571;28;20053;-88
2021/07/21 15:44:53;;;;;;;10.45;7.45;;;24.40;99.90;;;;;;12515452;28;20110;-87
2021/07/21 15:50:59;;;;;;;8.98;6.97;;;24.50;99.90;;;;;;12515376;28;20071;-88
2021/07/21 15:57:03;;;;;;;9.73;7.38;;;24.20;99.90;;;;;;12529532;28;20049;-88
2021/07/21 16:03:12;;;;;;;10.88;7.60;;;23.50;99.90;;;;;;12555198;27;20400;-41
2021/07/21 16:09:23;;;;;;;9.55;7.18;;;23.00;99.90;;;;;;12482518;28;20062;-42
2021/07/21 16:15:25;;;;;;;12.75;8.05;;;22.50;99.90;;;;;;12480138;28;20482;-41
2021/07/21 16:21:27;;;;;;;11.75;7.18;;;22.20;99.90;;;;;;12480642;28;20898;-42
2021/07/21 16:27:29;;;;;;;15.73;7.95;;;22.10;99.90;;;;;;12483344;28;20058;-42
2021/07/21 16:33:30;;;;;;;11.07;7.30;;;21.80;99.90;;;;;;12481241;28;20057;-41
2021/07/21 16:39:32;;;;;;;11.43;7.80;;;21.60;99.90;;;;;;12478473;28;20049;-42
2021/07/21 16:45:34;;;;;;;9.57;7.20;;;21.50;99.90;;;;;;12473425;28;20045;-40
2021/07/21 16:51:36;;;;;;;11.88;7.28;;;21.30;99.90;;;;;;12471933;28;20891;-41
2021/07/21 16:57:39;;;;;;;12.18;7.22;;;21.20;99.90;;;;;;12472041;28;20126;-41
2021/07/21 17:03:40;;;;;;;11.43;7.95;;;21.20;99.90;;;;;;12475500;28;20108;-41
2021/07/21 17:09:43;;;;;;;10.63;6.68;;;21.10;99.90;;;;;;12468654;28;20049;-43
2021/07/21 17:15:45;;;;;;;10.87;7.63;;;21.10;99.90;;;;;;12440177;28;20057;-44
2021/07/21 17:21:47;;;;;;;11.48;7.22;;;21.10;99.90;;;;;;12441716;28;20407;-41
2021/07/21 17:27:50;;;;;;;10.48;7.50;;;21.10;99.90;;;;;;12438451;28;20386;-41
2021/07/21 17:33:52;;;;;;;11.53;7.10;;;21.10;99.90;;;;;;12441442;28;20111;-42
2021/07/21 17:39:54;;;;;;;11.15;7.18;;;21.10;99.90;;;;;;12446052;28;20049;-41
2021/07/21 17:45:55;;;;;;;11.77;7.38;;;21.20;99.90;;;;;;12445356;28;20101;-42
2021/07/21 17:51:57;;;;;;;10.82;7.13;;;21.20;99.90;;;;;;12445571;28;20612;-44
2021/07/21 17:57:59;;;;;;;12.35;6.80;;;21.10;99.90;;;;;;12449791;28;20064;-41
2021/07/21 18:04:01;;;;;;;8.80;6.07;;;21.30;99.90;;;;;;12446333;28;20046;-41
2021/07/21 18:10:05;;;;;;;14.60;8.02;;;21.30;99.90;;;;;;12441795;28;20123;-42
2021/07/21 18:16:07;;;;;;;11.38;7.93;;;21.20;99.90;;;;;;12443640;28;20057;-40
2021/07/21 18:22:10;;;;;;;10.57;7.45;;;21.00;99.90;;;;;;12463383;28;20877;-41
2021/07/21 18:28:12;;;;;;;13.43;7.85;;;21.00;99.90;;;;;;12495014;28;20053;-41
2021/07/21 18:34:14;;;;;;;11.18;7.22;;;20.90;99.90;;;;;;12493754;28;20049;-41
2021/07/21 18:40:16;;;;;;;12.82;7.88;;;20.80;99.90;;;;;;12494420;28;20094;-43
2021/07/21 18:46:18;;;;;;;14.77;7.70;;;20.80;99.90;;;;;;12490048;28;20489;-41
2021/07/21 18:52:20;;;;;;;12.50;7.75;;;20.80;99.90;;;;;;12491414;28;20444;-42
2021/07/21 18:58:22;;;;;;;12.38;7.63;;;20.50;99.90;;;;;;12496971;28;20060;-42
2021/07/21 19:04:24;;;;;;;10.98;7.60;;;20.20;99.90;;;;;;12492552;28;20049;-42
2021/07/21 19:10:26;;;;;;;10.10;7.78;;;20.00;99.90;;;;;;12490536;28;20094;-42
2021/07/21 19:16:27;;;;;;;11.88;7.65;;;19.90;99.90;;;;;;12495199;28;20126;-44
2021/07/21 19:22:29;;;;;;;11.18;7.65;;;19.90;99.90;;;;;;12492638;28;20141;-42
2021/07/21 19:28:32;;;;;;;12.02;7.43;;;19.50;99.90;;;;;;12491062;28;20053;-41
2021/07/21 19:34:34;;;;;;;10.57;7.45;;;19.40;99.90;;;;;;12490282;28;20041;-41
2021/07/21 19:40:35;;;;;;;11.85;7.70;;;19.40;99.90;;;;;;12498704;28;20041;-40
2021/07/21 19:46:39;;;;;;;12.80;7.30;;;19.50;99.90;;;;;;12490370;28;20064;-41
2021/07/21 19:52:41;;;;;;;12.43;7.78;;;19.50;99.90;;;;;;12494522;28;20145;-42
2021/07/21 19:58:51;;;;;;;11.50;7.72;;;19.40;99.90;;;;;;12491272;28;20057;-43
2021/07/21 20:04:53;;;;;;;13.27;7.72;;;19.40;99.90;;;;;;12489781;28;20045;-40
2021/07/21 20:10:55;;;;;;;12.35;7.88;;;19.50;99.90;;;;;;12490176;28;20090;-40
2021/07/21 20:16:58;;;;;;;14.45;8.10;;;19.40;99.90;;;;;;12492657;28;20075;-42
2021/07/21 20:23:00;;;;;;;11.32;7.72;;;19.20;99.90;;;;;;12490700;28;20044;-43
2021/07/21 20:29:02;;;;;;;10.75;7.00;;;19.20;99.90;;;;;;12490127;28;20459;-41
2021/07/21 20:35:04;;;;;;;13.45;7.68;;;19.20;99.90;;;;;;12495898;28;20099;-41
2021/07/21 20:41:09;;;;;;;12.35;7.43;;;19.20;99.90;;;;;;12488300;28;20314;-42
2021/07/21 20:47:11;;;;;;;12.25;7.63;;;19.20;99.90;;;;;;12495765;28;20053;-41
2021/07/21 20:53:14;;;;;;;11.07;7.60;;;19.10;99.90;;;;;;12499567;28;20041;-46
2021/07/21 20:59:17;;;;;;;12.25;7.57;;;19.10;99.90;;;;;;12504256;28;20496;-44
2021/07/21 21:05:18;;;;;;;11.00;7.75;;;19.10;99.90;;;;;;12498859;28;20094;-40
2021/07/21 21:11:20;;;;;;;13.52;7.68;;;19.10;99.90;;;;;;12496439;28;20037;-42
2021/07/21 21:17:22;;;;;;;13.10;7.13;;;19.10;99.90;;;;;;12495549;28;20056;-42
2021/07/21 21:23:24;;;;;;;12.68;7.45;;;19.00;99.90;;;;;;12496862;28;20057;-41
2021/07/21 21:29:26;;;;;;;12.30;7.10;;;18.90;99.90;;;;;;12497915;28;20079;-43
2021/07/21 21:35:28;;;;;;;12.38;7.28;;;18.80;99.90;;;;;;12492240;28;20049;-41
2021/07/21 21:41:30;;;;;;;15.27;6.78;;;18.60;99.90;;;;;;12492654;28;20456;-41
2021/07/21 21:47:32;;;;;;;11.55;8.13;;;18.40;99.90;;;;;;12492927;28;20102;-41
2021/07/21 21:53:34;;;;;;;11.80;7.47;;;18.20;99.90;;;;;;12493700;28;20542;-41
2021/07/21 21:59:36;;;;;;;12.00;7.82;;;18.40;99.90;;;;;;12502182;28;20668;-41
2021/07/21 22:05:38;;;;;;;13.35;7.68;;;18.20;99.90;;;;;;12490798;28;20102;-41
2021/07/21 22:11:40;;;;;;;14.57;8.05;;;18.10;99.90;;;;;;12496288;28;20524;-40
2021/07/21 22:17:42;;;;;;;13.38;8.38;;;18.10;99.90;;;;;;12491032;28;20095;-43
2021/07/21 22:23:55;;;;;;;12.65;7.70;;;18.20;99.90;;;;;;12494490;28;20398;-40
2021/07/21 22:29:56;;;;;;;12.10;7.95;;;18.30;99.90;;;;;;12492544;28;20118;-42
2021/07/21 22:35:59;;;;;;;12.40;8.43;;;18.30;99.90;;;;;;12489088;28;20076;-41
2021/07/21 22:42:06;;;;;;;13.98;8.50;;;18.40;99.90;;;;;;12494561;28;20101;-43
2021/07/21 22:48:08;;;;;;;12.13;8.63;;;18.40;99.90;;;;;;12492966;28;20087;-40
2021/07/21 22:54:10;;;;;;;14.93;8.68;;;18.40;99.90;;;;;;12492073;28;20090;-41
2021/07/21 23:00:29;;;;;;;14.70;8.50;;;18.30;99.90;;;;;;12492267;28;20103;-40
2021/07/21 23:07:08;;;;;;;11.88;8.40;;;18.30;99.90;;;;;;12492092;28;20060;-41
2021/07/21 23:13:47;;;;;;;13.57;8.68;;;18.20;99.90;;;;;;12492514;28;20106;-41
2021/07/21 23:19:49;;;;;;;14.07;9.43;;;18.20;99.90;;;;;;12495188;28;20083;-42
2021/07/21 23:25:51;;;;;;;15.40;8.98;;;18.20;99.90;;;;;;12490516;28;20053;-41
2021/07/21 23:31:53;;;;;;;14.43;8.50;;;18.20;99.90;;;;;;12491629;28;20504;-40
2021/07/21 23:37:55;;;;;;;14.15;8.55;;;18.20;99.90;;;;;;12492586;28;20420;-42
2021/07/21 23:43:57;;;;;;;12.82;8.43;;;18.40;99.90;;;;;;12491935;28;20505;-41
2021/07/21 23:49:59;;;;;;;11.32;8.30;;;18.50;99.90;;;;;;12490636;28;20094;-41
2021/07/21 23:56:01;;;;;;;16.95;8.35;;;18.50;99.90;;;;;;12492591;28;20773;-40
